createdAt,value
2023-04-23T00:01:12.625Z,101388.14
2023-04-23T00:03:43.208Z,101393.71
2023-04-23T00:06:12.248Z,101400.01
2023-04-23T00:08:41.209Z,101400.89
2023-04-23T00:11:10.284Z,101407.00
2023-04-23T00:13:38.842Z,101412.92
2023-04-23T00:16:07.751Z,101415.73
2023-04-23T00:18:36.177Z,101417.64
2023-04-23T00:21:04.573Z,101422.34
2023-04-23T00:23:33.725Z,101427.05
2023-04-23T00:26:02.532Z,101428.11
2023-04-23T00:28:31.072Z,101428.27
2023-04-23T00:30:59.563Z,101433.52
2023-04-23T00:33:28.375Z,101431.24
2023-04-23T00:35:56.704Z,101430.20
2023-04-23T00:38:26.757Z,101432.48
2023-04-23T00:40:55.663Z,101429.69
2023-04-23T00:43:24.412Z,101436.15
2023-04-23T00:45:53.123Z,101438.08
2023-04-23T00:48:21.672Z,101441.91
2023-04-23T00:50:50.019Z,101441.73
2023-04-23T00:53:19.071Z,101448.37
2023-04-23T00:55:47.294Z,101449.77
2023-04-23T00:58:15.917Z,101454.13
2023-04-23T01:00:46.623Z,101455.35
2023-04-23T01:03:18.772Z,101457.96
2023-04-23T01:05:47.703Z,101461.10
2023-04-23T01:08:16.915Z,101467.57
2023-04-23T01:10:46.115Z,101465.99
2023-04-23T01:13:14.662Z,101471.21
2023-04-23T01:15:45.126Z,101466.17
2023-04-23T01:18:14.960Z,101468.27
2023-04-23T01:20:44.022Z,101465.82
2023-04-23T01:23:13.057Z,101464.25
2023-04-23T01:25:41.324Z,101461.30
2023-04-23T01:28:09.669Z,101457.45
2023-04-23T01:30:38.530Z,101461.98
2023-04-23T01:33:06.898Z,101459.54
2023-04-23T01:35:35.102Z,101459.39
2023-04-23T01:38:04.045Z,101464.10
2023-04-23T01:40:32.295Z,101462.00
2023-04-23T01:43:00.797Z,101459.57
2023-04-23T01:45:33.113Z,101456.25
2023-04-23T01:48:01.468Z,101461.66
2023-04-23T01:50:30.203Z,101459.38
2023-04-23T01:52:58.807Z,101461.14
2023-04-23T01:55:27.115Z,101461.66
2023-04-23T01:57:55.983Z,101463.58
2023-04-23T02:00:24.183Z,101457.82
2023-04-23T02:02:55.306Z,101458.34
2023-04-23T02:05:23.885Z,101457.64
2023-04-23T02:07:52.348Z,101461.83
2023-04-23T02:10:21.091Z,101463.73
2023-04-23T02:12:49.405Z,101463.55
2023-04-23T02:15:18.143Z,101465.14
2023-04-23T02:17:46.485Z,101465.66
2023-04-23T02:20:14.668Z,101469.83
2023-04-23T02:22:43.052Z,101468.60
2023-04-23T02:25:11.510Z,101469.80
2023-04-23T02:27:40.039Z,101472.93
2023-04-23T02:30:09.672Z,101469.80
2023-04-23T02:32:38.278Z,101471.54
2023-04-23T02:35:06.932Z,101472.41
2023-04-23T02:37:37.250Z,101471.36
2023-04-23T02:40:06.965Z,101473.45
2023-04-23T02:42:35.337Z,101476.91
2023-04-23T02:45:03.773Z,101480.06
2023-04-23T02:47:32.173Z,101487.56
2023-04-23T02:50:03.450Z,101493.29
2023-04-23T02:52:33.899Z,101494.34
2023-04-23T02:55:02.756Z,101496.76
2023-04-23T02:57:31.217Z,101498.67
2023-04-23T02:59:59.477Z,101502.52
2023-04-23T03:02:33.388Z,101498.84
2023-04-23T03:05:02.172Z,101495.20
2023-04-23T03:07:30.634Z,101498.54
2023-04-23T03:09:59.379Z,101500.83
2023-04-23T03:12:27.955Z,101507.99
2023-04-23T03:14:56.660Z,101512.19
2023-04-23T03:17:26.215Z,101515.52
2023-04-23T03:19:54.757Z,101524.79
2023-04-23T03:22:23.750Z,101534.94
2023-04-23T03:24:52.236Z,101550.33
2023-04-23T03:27:21.517Z,101566.58
2023-04-23T03:29:49.780Z,101577.94
2023-04-23T03:32:18.072Z,101592.94
2023-04-23T03:34:46.581Z,101605.33
2023-04-23T03:37:15.049Z,101622.90
2023-04-23T03:39:43.300Z,101649.91
2023-04-23T03:42:12.689Z,101670.25
2023-04-23T03:44:41.429Z,101700.31
2023-04-23T03:47:09.915Z,101745.89
2023-04-23T03:49:38.527Z,101789.65
2023-04-23T03:52:07.221Z,101820.39
2023-04-23T03:54:37.047Z,101872.10
2023-04-23T03:57:14.756Z,101909.55
2023-04-23T04:00:12.061Z,101918.16
2023-04-23T04:02:43.909Z,101902.88
2023-04-23T04:05:12.659Z,101871.85
2023-04-23T04:07:41.426Z,101854.58
2023-04-23T04:10:09.863Z,101867.77
2023-04-23T04:12:41.353Z,101872.92
2023-04-23T04:15:12.397Z,101887.15
2023-04-23T04:17:40.813Z,101912.39
2023-04-23T04:20:10.319Z,101917.45
2023-04-23T04:22:39.746Z,101906.38
2023-04-23T04:25:08.526Z,101881.80
2023-04-23T04:27:39.348Z,101853.48
2023-04-23T04:30:09.253Z,101838.98
2023-04-23T04:32:39.209Z,101853.91
2023-04-23T04:35:09.484Z,101893.86
2023-04-23T04:37:37.905Z,101937.10
2023-04-23T04:40:07.915Z,101944.41
2023-04-23T04:42:36.476Z,101933.58
2023-04-23T04:45:06.278Z,101927.72
2023-04-23T04:47:34.862Z,101927.10
2023-04-23T04:50:04.194Z,101912.33
2023-04-23T04:52:33.752Z,101892.27
2023-04-23T04:55:02.018Z,101883.66
2023-04-23T04:57:30.734Z,101885.13
2023-04-23T04:59:59.080Z,101880.92
2023-04-23T05:02:27.597Z,101874.28
2023-04-23T05:04:55.884Z,101884.25
2023-04-23T05:07:24.050Z,101925.06
2023-04-23T05:09:52.303Z,101986.77
2023-04-23T05:12:20.614Z,102010.75
2023-04-23T05:14:48.808Z,102006.59
2023-04-23T05:17:17.085Z,101985.73
2023-04-23T05:19:45.578Z,101957.12
2023-04-23T05:22:13.981Z,101931.11
2023-04-23T05:24:42.531Z,101928.66
2023-04-23T05:27:11.415Z,101947.64
2023-04-23T05:29:39.929Z,101972.89
2023-04-23T05:32:08.524Z,101983.83
2023-04-23T05:34:36.726Z,101992.27
2023-04-23T05:37:05.002Z,102014.17
2023-04-23T05:39:33.472Z,102040.39
2023-04-23T05:42:02.458Z,102060.94
2023-04-23T05:44:31.137Z,102078.30
2023-04-23T05:46:59.752Z,102090.35
2023-04-23T05:49:27.962Z,102087.13
2023-04-23T05:51:56.171Z,102074.20
2023-04-23T05:54:24.412Z,102044.26
2023-04-23T05:56:54.567Z,102027.40
2023-04-23T05:59:23.080Z,102014.54
2023-04-23T06:01:51.367Z,102003.40
2023-04-23T06:04:20.263Z,101992.58
2023-04-23T06:06:48.790Z,101977.77
2023-04-23T06:09:17.044Z,101969.75
2023-04-23T06:11:45.260Z,101964.20
2023-04-23T06:14:13.749Z,101961.77
2023-04-23T06:16:42.011Z,101966.89
2023-04-23T06:19:10.481Z,101968.41
2023-04-23T06:21:38.967Z,101968.00
2023-04-23T06:24:10.369Z,101968.45
2023-04-23T06:26:38.562Z,101969.98
2023-04-23T06:29:11.498Z,101979.95
2023-04-23T06:31:52.175Z,101987.41
2023-04-23T06:34:20.998Z,102001.76
2023-04-23T06:36:51.013Z,102002.29
2023-04-23T06:39:19.559Z,101993.08
2023-04-23T06:41:47.813Z,101979.84
2023-04-23T06:44:47.455Z,101973.30
2023-04-23T06:47:15.783Z,101961.56
2023-04-23T06:49:43.991Z,101955.26
2023-04-23T06:52:12.786Z,101944.95
2023-04-23T06:54:41.338Z,101943.90
2023-04-23T06:57:09.900Z,101934.39
2023-04-23T06:59:38.418Z,101923.48
2023-04-23T07:02:07.210Z,101912.60
2023-04-23T07:04:36.337Z,101902.20
2023-04-23T07:07:04.633Z,101900.09
2023-04-23T07:09:32.992Z,101904.80
2023-04-23T07:12:02.501Z,101912.47
2023-04-23T07:14:31.203Z,101920.05
2023-04-23T07:16:59.619Z,101936.23
2023-04-23T07:19:28.007Z,101959.56
2023-04-23T07:21:56.240Z,101988.03
2023-04-23T07:27:17.759Z,102093.19
2023-04-23T07:29:46.272Z,102103.16
2023-04-23T07:32:14.619Z,102122.02
2023-04-23T07:37:11.921Z,102152.06
2023-04-23T07:39:42.606Z,102156.33
2023-04-23T07:42:12.284Z,102154.91
2023-04-23T07:44:40.746Z,102150.59
2023-04-23T07:47:09.140Z,102152.02
2023-04-23T07:49:37.333Z,102147.40
2023-04-23T07:52:05.612Z,102140.63
2023-04-23T07:54:33.888Z,102129.58
2023-04-23T07:57:03.256Z,102117.80
2023-04-23T07:59:31.488Z,102111.11
2023-04-23T08:01:59.881Z,102106.50
2023-04-23T08:04:28.269Z,102095.43
2023-04-23T08:06:56.852Z,102086.75
2023-04-23T08:09:26.376Z,102081.40
2023-04-23T08:11:55.393Z,102073.62
2023-04-23T08:14:23.764Z,102062.11
2023-04-23T08:16:52.337Z,102049.60
2023-04-23T08:19:20.630Z,102036.85
2023-04-23T08:21:49.198Z,102021.12
2023-04-23T08:24:17.590Z,102009.10
2023-04-23T08:26:46.856Z,102000.30
2023-04-23T08:29:15.038Z,101989.25
2023-04-23T08:31:43.297Z,101975.11
2023-04-23T08:34:11.874Z,101962.61
2023-04-23T08:36:40.387Z,101946.39
2023-04-23T08:39:09.353Z,101939.16
2023-04-23T08:41:43.056Z,101922.89
2023-04-23T08:44:24.357Z,101909.33
2023-04-23T08:46:54.070Z,101898.13
2023-04-23T08:49:22.357Z,101891.93
2023-04-23T08:51:53.143Z,101882.21
2023-04-23T08:54:28.994Z,101869.91
2023-04-23T08:57:01.154Z,101861.12
2023-04-23T08:59:32.788Z,101855.16
2023-04-23T09:02:01.954Z,101856.14
2023-04-23T09:04:31.869Z,101842.77
2023-04-23T09:07:00.551Z,101825.38
2023-04-23T09:09:29.950Z,101814.19
2023-04-23T09:11:58.694Z,101807.78
2023-04-23T09:14:27.228Z,101796.83
2023-04-23T09:16:55.743Z,101773.27
2023-04-23T09:19:25.466Z,101758.10
2023-04-23T09:21:53.829Z,101743.38
2023-04-23T09:24:25.356Z,101728.83
2023-04-23T09:26:53.643Z,101715.88
2023-04-23T09:29:23.842Z,101704.08
2023-04-23T09:31:56.266Z,101697.05
2023-04-23T09:34:25.392Z,101685.67
2023-04-23T09:36:53.921Z,101675.86
2023-04-23T09:39:23.021Z,101666.67
2023-04-23T09:41:54.502Z,101660.81
2023-04-23T09:44:23.198Z,101653.09
2023-04-23T09:46:51.639Z,101645.50
2023-04-23T09:49:20.210Z,101633.91
2023-04-23T09:51:49.185Z,101625.02
2023-04-23T09:54:26.218Z,101613.76
2023-04-23T09:56:57.474Z,101601.67
2023-04-23T09:59:46.862Z,101593.45
2023-04-23T10:02:17.169Z,101578.15
2023-04-23T10:04:46.021Z,101567.58
2023-04-23T10:07:19.512Z,101552.55
2023-04-23T10:09:48.782Z,101543.73
2023-04-23T10:12:36.966Z,101529.32
2023-04-23T10:15:06.120Z,101524.23
2023-04-23T10:17:37.975Z,101511.84
2023-04-23T10:20:08.673Z,101488.81
2023-04-23T10:22:38.413Z,101463.66
2023-04-23T10:25:10.153Z,101446.02
2023-04-23T10:27:53.254Z,101434.45
2023-04-23T10:30:23.345Z,101418.77
2023-04-23T10:32:52.066Z,101409.66
2023-04-23T10:35:20.536Z,101403.55
2023-04-23T10:37:48.888Z,101391.04
2023-04-23T10:40:35.442Z,101389.66
2023-04-23T10:43:03.805Z,101383.66
2023-04-23T10:45:33.258Z,101378.81
2023-04-23T10:48:01.617Z,101395.63
2023-04-23T10:50:31.329Z,101399.50
2023-04-23T10:52:59.653Z,101391.86
2023-04-23T10:55:29.636Z,101379.32
2023-04-23T10:58:05.598Z,101369.14
2023-04-23T11:00:46.472Z,101354.35
2023-04-23T11:03:32.344Z,101344.83
2023-04-23T11:06:04.519Z,101343.58
2023-04-23T11:08:38.045Z,101343.31
2023-04-23T11:11:09.376Z,101319.71
2023-04-23T11:13:37.921Z,101302.94
2023-04-23T11:16:16.128Z,101278.86
2023-04-23T11:19:01.544Z,101257.48
2023-04-23T11:21:55.142Z,101233.39
2023-04-23T11:24:24.951Z,101215.28
2023-04-23T11:26:56.314Z,101205.73
2023-04-23T11:29:26.539Z,101199.98
2023-04-23T11:32:02.596Z,101190.21
2023-04-23T11:34:33.066Z,101194.24
2023-04-23T11:37:02.564Z,101202.09
2023-04-23T11:39:31.419Z,101200.88
2023-04-23T11:42:03.359Z,101199.72
2023-04-23T11:44:33.300Z,101201.56
2023-04-23T11:47:02.839Z,101199.34
2023-04-23T11:49:31.455Z,101201.39
2023-04-23T11:52:02.834Z,101198.80
2023-04-23T11:54:31.409Z,101199.64
2023-04-23T11:57:00.310Z,101200.42
2023-04-23T11:59:29.244Z,101205.93
2023-04-23T12:01:59.807Z,101217.02
2023-04-23T12:04:31.016Z,101230.34
2023-04-23T12:06:59.801Z,101248.08
2023-04-23T12:09:29.322Z,101265.16
2023-04-23T12:11:58.795Z,101283.65
2023-04-23T12:14:30.837Z,101304.77
2023-04-23T12:16:59.649Z,101312.45
2023-04-23T12:19:29.237Z,101328.67
2023-04-23T12:21:58.217Z,101337.23
2023-04-23T12:24:28.066Z,101342.70
2023-04-23T12:26:58.697Z,101352.65
2023-04-23T12:29:27.259Z,101351.26
2023-04-23T12:31:58.733Z,101336.60
2023-04-23T12:34:26.899Z,101326.79
2023-04-23T12:36:56.071Z,101314.31
2023-04-23T12:39:34.642Z,101285.72
2023-04-23T12:42:07.143Z,101262.73
2023-04-23T12:44:36.754Z,101257.71
2023-04-23T12:47:09.730Z,101253.92
2023-04-23T12:49:40.210Z,101269.24
2023-04-23T12:52:10.021Z,101268.98
2023-04-23T12:54:40.176Z,101274.01
2023-04-23T12:57:14.462Z,101267.81
2023-04-23T12:59:43.099Z,101263.66
2023-04-23T13:02:11.709Z,101252.91
2023-04-23T13:04:40.468Z,101243.74
2023-04-23T13:07:09.699Z,101235.84
2023-04-23T13:09:38.128Z,101234.36
2023-04-23T13:12:06.413Z,101224.70
2023-04-23T13:14:35.056Z,101231.00
2023-04-23T13:17:03.869Z,101192.23
2023-04-23T13:19:32.538Z,101137.02
2023-04-23T13:22:03.774Z,101093.73
2023-04-23T13:24:32.771Z,101059.96
2023-04-23T13:27:02.011Z,101036.69
2023-04-23T13:29:30.484Z,101028.66
2023-04-23T13:31:58.824Z,101030.91
2023-04-23T13:34:27.347Z,101033.97
2023-04-23T13:36:55.587Z,101039.84
2023-04-23T13:39:23.859Z,101044.20
2023-04-23T13:42:06.173Z,101045.84
2023-04-23T13:44:37.226Z,101051.59
2023-04-23T13:47:05.624Z,101054.54
2023-04-23T13:49:34.339Z,101060.13
2023-04-23T13:52:07.071Z,101069.81
2023-04-23T13:54:36.179Z,101073.54
2023-04-23T13:57:04.642Z,101089.61
2023-04-23T13:59:34.412Z,101092.13
2023-04-23T14:02:02.701Z,101106.98
2023-04-23T14:04:31.102Z,101112.77
2023-04-23T14:06:59.388Z,101125.30
2023-04-23T14:09:30.206Z,101135.89
2023-04-23T14:11:58.935Z,101147.92
2023-04-23T14:14:27.222Z,101153.29
2023-04-23T14:16:55.442Z,101164.66
2023-04-23T14:19:24.052Z,101177.86
2023-04-23T14:21:52.292Z,101188.25
2023-04-23T14:24:46.816Z,101201.61
2023-04-23T14:27:15.824Z,101210.60
2023-04-23T14:29:52.046Z,101221.98
2023-04-23T14:32:20.586Z,101231.14
2023-04-23T14:34:48.934Z,101240.29
2023-04-23T14:37:17.851Z,101247.27
2023-04-23T14:39:45.283Z,101256.48
2023-04-23T14:42:12.561Z,101258.45
2023-04-23T14:44:39.557Z,101262.05
2023-04-23T14:47:09.172Z,101259.24
2023-04-23T14:49:36.163Z,101263.39
2023-04-23T14:52:04.378Z,101263.46
2023-04-23T14:54:31.919Z,101267.52
2023-04-23T14:56:58.892Z,101272.64
2023-04-23T14:59:26.235Z,101275.20
2023-04-23T15:01:53.432Z,101280.10
2023-04-23T15:04:20.707Z,101286.33
2023-04-23T15:06:47.954Z,101289.73
2023-04-23T15:09:15.013Z,101293.80
2023-04-23T15:11:43.570Z,101297.47
2023-04-23T15:14:16.700Z,101300.21
2023-04-23T15:16:48.248Z,101298.70
2023-04-23T15:19:19.576Z,101297.98
2023-04-23T15:21:47.617Z,101297.63
2023-04-23T15:24:15.670Z,101297.80
2023-04-23T15:26:43.124Z,101302.59
2023-04-23T15:29:10.516Z,101300.77
2023-04-23T15:31:38.345Z,101301.16
2023-04-23T15:34:06.413Z,101301.45
2023-04-23T15:36:35.192Z,101299.90
2023-04-23T15:39:02.211Z,101301.02
2023-04-23T15:41:29.213Z,101305.79
2023-04-23T15:43:56.845Z,101317.18
2023-04-23T15:46:23.958Z,101319.20
2023-04-23T15:48:50.978Z,101322.99
2023-04-23T15:51:18.125Z,101323.86
2023-04-23T15:53:45.210Z,101326.98
2023-04-23T15:56:12.214Z,101326.09
2023-04-23T15:58:39.280Z,101321.30
2023-04-23T16:01:08.673Z,101322.77
2023-04-23T16:03:35.991Z,101327.30
2023-04-23T16:06:04.529Z,101333.16
2023-04-23T16:08:32.426Z,101335.64
2023-04-23T16:10:59.583Z,101339.82
2023-04-23T16:13:28.618Z,101341.90
2023-04-23T16:15:55.711Z,101343.33
2023-04-23T16:18:22.753Z,101342.48
2023-04-23T16:20:49.772Z,101340.66
2023-04-23T16:23:16.899Z,101340.77
2023-04-23T16:25:44.426Z,101340.38
2023-04-23T16:28:13.516Z,101340.08
2023-04-23T16:30:40.765Z,101345.96
2023-04-23T16:33:08.130Z,101359.80
2023-04-23T16:35:35.210Z,101363.38
2023-04-23T16:38:02.385Z,101369.63
2023-04-23T16:40:29.527Z,101373.91
2023-04-23T16:42:56.564Z,101374.27
2023-04-23T16:45:23.712Z,101377.91
2023-04-23T16:47:51.092Z,101379.20
2023-04-23T16:50:18.289Z,101381.63
2023-04-23T16:52:45.599Z,101384.31
2023-04-23T16:55:12.582Z,101383.66
2023-04-23T16:57:39.693Z,101391.84
2023-04-23T17:00:08.203Z,101395.68
2023-04-23T17:02:35.437Z,101399.52
2023-04-23T17:05:02.746Z,101406.79
2023-04-23T17:07:29.794Z,101409.88
2023-04-23T17:09:56.896Z,101414.26
2023-04-23T17:12:23.910Z,101422.69
2023-04-23T17:14:50.974Z,101426.56
2023-04-23T17:17:18.160Z,101436.33
2023-04-23T17:19:46.068Z,101437.42
2023-04-23T17:22:13.185Z,101446.21
2023-04-23T17:24:40.487Z,101453.30
2023-04-23T17:27:07.928Z,101459.87
2023-04-23T17:29:34.910Z,101470.85
2023-04-23T17:32:03.138Z,101478.80
2023-04-23T17:34:30.467Z,101485.26
2023-04-23T17:36:57.540Z,101491.84
2023-04-23T17:39:25.783Z,101498.54
2023-04-23T17:41:53.195Z,101507.84
2023-04-23T17:44:20.244Z,101513.73
2023-04-23T17:46:47.274Z,101519.56
2023-04-23T17:49:14.447Z,101531.40
2023-04-23T17:51:41.441Z,101537.40
2023-04-23T17:54:08.549Z,101543.73
2023-04-23T17:56:35.975Z,101549.08
2023-04-23T17:59:03.031Z,101551.60
2023-04-23T18:01:30.100Z,101556.45
2023-04-23T18:03:57.282Z,101560.48
2023-04-23T18:06:24.463Z,101566.58
2023-04-23T18:08:51.562Z,101572.33
2023-04-23T18:11:18.829Z,101573.35
2023-04-23T18:13:45.876Z,101582.70
2023-04-23T18:16:12.932Z,101581.99
2023-04-23T18:18:40.160Z,101590.95
2023-04-23T18:21:07.414Z,101592.89
2023-04-23T18:23:36.215Z,101597.65
2023-04-23T18:26:03.341Z,101600.52
2023-04-23T18:28:30.380Z,101606.98
2023-04-23T18:31:02.603Z,101609.94
2023-04-23T18:33:42.551Z,101608.95
2023-04-23T18:36:36.450Z,101611.85
2023-04-23T18:39:04.143Z,101618.31
2023-04-23T18:41:31.378Z,101617.65
2023-04-23T18:44:00.460Z,101626.45
2023-04-23T18:46:29.734Z,101625.20
2023-04-23T18:49:06.329Z,101631.34
2023-04-23T18:51:39.087Z,101626.52
2023-04-23T18:54:06.182Z,101636.85
2023-04-23T18:56:34.210Z,101645.13
2023-04-23T18:59:01.257Z,101647.77
2023-04-23T19:01:28.687Z,101646.45
2023-04-23T19:03:57.537Z,101646.60
2023-04-23T19:06:25.064Z,101646.63
2023-04-23T19:08:52.167Z,101647.48
2023-04-23T19:11:19.253Z,101652.08
2023-04-23T19:13:46.314Z,101654.17
2023-04-23T19:16:16.423Z,101658.71
2023-04-23T19:18:43.966Z,101659.92
2023-04-23T19:21:11.027Z,101659.21
2023-04-23T19:23:38.169Z,101667.31
2023-04-23T19:26:05.188Z,101669.16
2023-04-23T19:28:32.192Z,101676.15
2023-04-23T19:30:59.353Z,101674.50
2023-04-23T19:33:27.207Z,101679.02
2023-04-23T19:35:54.248Z,101686.66
2023-04-23T19:38:21.482Z,101694.21
2023-04-23T19:40:48.713Z,101702.98
2023-04-23T19:44:48.248Z,101707.43
2023-04-23T19:47:17.200Z,101706.00
2023-04-23T19:49:45.358Z,101701.34
2023-04-23T19:52:16.966Z,101701.80
2023-04-23T19:54:49.099Z,101701.90
2023-04-23T19:57:18.623Z,101701.46
2023-04-23T19:59:46.362Z,101709.61
2023-04-23T20:02:13.695Z,101703.90
2023-04-23T20:04:41.823Z,101703.85
2023-04-23T20:07:09.067Z,101706.54
2023-04-23T20:09:36.086Z,101710.33
2023-04-23T20:12:03.148Z,101708.06
2023-04-23T20:14:30.171Z,101710.93
2023-04-23T20:16:57.616Z,101713.52
2023-04-23T20:19:27.912Z,101715.45
2023-04-23T20:21:55.045Z,101715.08
2023-04-23T20:24:22.071Z,101719.41
2023-04-23T20:26:49.108Z,101719.33
2023-04-23T20:29:16.098Z,101722.95
2023-04-23T20:31:43.178Z,101724.13
2023-04-23T20:34:11.245Z,101722.30
2023-04-23T20:36:39.111Z,101726.41
2023-04-23T20:39:06.170Z,101725.94
2023-04-23T20:41:36.856Z,101729.70
2023-04-23T20:44:05.280Z,101732.08
2023-04-23T20:46:32.544Z,101733.53
2023-04-23T20:49:01.060Z,101734.30
2023-04-23T20:51:33.477Z,101731.77
2023-04-23T20:54:00.641Z,101734.70
2023-04-23T20:56:28.304Z,101733.94
2023-04-23T20:58:57.652Z,101736.48
2023-04-23T21:01:25.630Z,101741.65
2023-04-23T21:03:54.125Z,101744.02
2023-04-23T21:06:21.506Z,101742.69
2023-04-23T21:08:48.615Z,101744.86
2023-04-23T21:11:17.838Z,101744.58
2023-04-23T21:13:48.051Z,101746.90
2023-04-23T21:16:15.274Z,101748.54
2023-04-23T21:18:42.528Z,101751.62
2023-04-23T21:21:09.597Z,101752.95
2023-04-23T21:23:36.602Z,101750.91
2023-04-23T21:26:03.833Z,101753.41
2023-04-23T21:28:31.974Z,101752.80
2023-04-23T21:31:12.443Z,101752.85
2023-04-23T21:33:39.564Z,101754.30
2023-04-23T21:36:06.830Z,101763.27
2023-04-23T21:38:33.868Z,101765.39
2023-04-23T21:41:01.603Z,101767.38
2023-04-23T21:43:29.646Z,101772.30
2023-04-23T21:45:56.809Z,101774.42
2023-04-23T21:48:24.190Z,101776.20
2023-04-23T21:50:53.847Z,101777.76
2023-04-23T21:53:22.791Z,101781.63
2023-04-23T21:55:49.856Z,101787.59
2023-04-23T21:58:18.037Z,101791.62
2023-04-23T22:00:46.173Z,101794.27
2023-04-23T22:03:15.856Z,101793.11
2023-04-23T22:05:52.582Z,101793.73
2023-04-23T22:08:19.748Z,101792.52
2023-04-23T22:10:46.878Z,101793.06
2023-04-23T22:13:14.617Z,101797.63
2023-04-23T22:15:42.445Z,101804.51
2023-04-23T22:18:09.450Z,101804.73
2023-04-23T22:20:38.400Z,101810.68
2023-04-23T22:23:05.372Z,101810.00
2023-04-23T22:25:32.331Z,101810.58
2023-04-23T22:27:59.295Z,101811.83
2023-04-23T22:30:26.358Z,101818.67
2023-04-23T22:32:53.410Z,101824.48
2023-04-23T22:35:20.624Z,101827.14
2023-04-23T22:37:47.734Z,101826.63
2023-04-23T22:40:14.715Z,101826.27
2023-04-23T22:42:41.684Z,101826.13
2023-04-23T22:45:08.883Z,101825.95
2023-04-23T22:47:35.958Z,101827.35
2023-04-23T22:50:04.156Z,101831.36
2023-04-23T22:52:31.779Z,101829.98
2023-04-23T22:54:58.793Z,101834.54
2023-04-23T22:57:25.869Z,101835.77
2023-04-23T22:59:52.857Z,101836.66
2023-04-23T23:02:20.052Z,101838.05
2023-04-23T23:04:47.117Z,101837.02
2023-04-23T23:07:14.987Z,101841.58
2023-04-23T23:09:42.268Z,101840.37
2023-04-23T23:12:09.469Z,101840.38
2023-04-23T23:14:37.963Z,101848.26
2023-04-23T23:17:06.378Z,101852.80
2023-04-23T23:19:33.520Z,101852.98
2023-04-23T23:22:00.602Z,101857.37
2023-04-23T23:24:27.664Z,101861.05
2023-04-23T23:26:54.667Z,101863.15
2023-04-23T23:29:21.897Z,101858.61
2023-04-23T23:31:49.297Z,101860.54
2023-04-23T23:34:16.357Z,101865.45
2023-04-23T23:36:45.280Z,101865.27
2023-04-23T23:39:13.477Z,101861.08
2023-04-23T23:41:40.458Z,101859.34
2023-04-23T23:44:07.498Z,101861.09
2023-04-23T23:46:34.505Z,101861.77
2023-04-23T23:49:01.485Z,101864.40
2023-04-23T23:51:29.292Z,101865.46
2023-04-23T23:53:56.272Z,101862.31
2023-04-23T23:56:23.325Z,101867.56
2023-04-23T23:58:50.323Z,101867.73
